createdAt,value
2022-08-11T00:00:21.625Z,100678.44
2022-08-11T00:00:52.929Z,100682.78
2022-08-11T00:01:24.894Z,100675.75
2022-08-11T00:01:56.214Z,100676.88
2022-08-11T00:02:35.055Z,100683.06
2022-08-11T00:03:06.886Z,100678.59
2022-08-11T00:03:43.575Z,100676.03
2022-08-11T00:04:15.530Z,100671.66
2022-08-11T00:04:46.894Z,100676.88
2022-08-11T00:05:21.493Z,100675.22
2022-08-11T00:05:56.067Z,100676.88
2022-08-11T00:06:29.200Z,100678.03
2022-08-11T00:07:01.175Z,100681.66
2022-08-11T00:07:32.469Z,100677.16
2022-08-11T00:08:03.837Z,100680.97
2022-08-11T00:08:35.194Z,100672.94
2022-08-11T00:09:10.714Z,100677.44
2022-08-11T00:09:42.029Z,100671.25
2022-08-11T00:10:16.435Z,100675.63
2022-08-11T00:10:51.518Z,100674.63
2022-08-11T00:11:31.636Z,100678.28
2022-08-11T00:12:03.114Z,100675.75
2022-08-11T00:12:34.430Z,100675.75
2022-08-11T00:13:05.817Z,100675.91
2022-08-11T00:13:40.820Z,100675.75
2022-08-11T00:14:19.300Z,100670.41
2022-08-11T00:14:57.602Z,100677.56
2022-08-11T00:15:36.950Z,100683.91
2022-08-11T00:16:15.142Z,100677.56
2022-08-11T00:17:00.409Z,100675.03
2022-08-11T00:17:32.590Z,100676.59
2022-08-11T00:18:03.967Z,100676.59
2022-08-11T00:18:44.979Z,100681.25
2022-08-11T00:19:20.133Z,100674.88
2022-08-11T00:20:16.581Z,100674.47
2022-08-11T00:20:48.541Z,100676.88
2022-08-11T00:21:20.406Z,100676.03
2022-08-11T00:22:11.746Z,100677.00
2022-08-11T00:22:43.691Z,100673.34
2022-08-11T00:23:17.444Z,100671.94
2022-08-11T00:23:56.728Z,100666.44
2022-08-11T00:24:49.356Z,100670.13
2022-08-11T00:25:26.391Z,100675.34
2022-08-11T00:25:57.717Z,100676.16
2022-08-11T00:26:29.171Z,100671.78
2022-08-11T00:27:00.505Z,100674.31
2022-08-11T00:27:32.632Z,100679.69
2022-08-11T00:28:04.036Z,100681.38
2022-08-11T00:28:35.376Z,100671.78
2022-08-11T00:29:10.393Z,100671.09
2022-08-11T00:29:51.805Z,100672.78
2022-08-11T00:30:23.368Z,100687.84
2022-08-11T00:30:55.221Z,100682.22
2022-08-11T00:31:28.306Z,100669.25
2022-08-11T00:32:00.421Z,100678.97
2022-08-11T00:32:31.752Z,100680.09
2022-08-11T00:33:03.085Z,100681.78
2022-08-11T00:33:44.631Z,100679.81
2022-08-11T00:34:17.706Z,100672.66
2022-08-11T00:34:49.180Z,100677.28
2022-08-11T00:35:55.653Z,100677.13
2022-08-11T00:36:13.229Z,100680.69
2022-08-11T00:36:44.506Z,100676.31
2022-08-11T00:37:19.489Z,100677.00
2022-08-11T00:37:50.836Z,100674.75
2022-08-11T00:38:25.752Z,100674.59
2022-08-11T00:39:02.676Z,100670.38
2022-08-11T00:39:34.975Z,100674.03
2022-08-11T00:40:07.915Z,100672.78
2022-08-11T00:40:42.754Z,100676.56
2022-08-11T00:41:16.794Z,100672.06
2022-08-11T00:42:06.957Z,100677.13
2022-08-11T00:42:41.182Z,100675.75
2022-08-11T00:43:21.026Z,100675.00
2022-08-11T00:44:11.259Z,100673.91
2022-08-11T00:44:50.680Z,100677.41
2022-08-11T00:45:35.797Z,100676.44
2022-08-11T00:46:16.346Z,100673.75
2022-08-11T00:46:53.741Z,100670.13
2022-08-11T00:47:25.014Z,100672.06
2022-08-11T00:48:19.340Z,100672.06
2022-08-11T00:48:53.435Z,100673.75
2022-08-11T00:49:30.879Z,100668.69
2022-08-11T00:50:02.150Z,100671.09
2022-08-11T00:50:39.330Z,100675.59
2022-08-11T00:51:15.475Z,100677.41
2022-08-11T00:52:05.562Z,100673.06
2022-08-11T00:52:56.336Z,100672.34
2022-08-11T00:53:32.805Z,100671.38
2022-08-11T00:54:28.401Z,100673.19
2022-08-11T00:55:20.322Z,100676.84
2022-08-11T00:56:10.152Z,100669.53
2022-08-11T00:56:59.964Z,100678.28
2022-08-11T00:57:46.533Z,100670.53
2022-08-11T00:58:21.891Z,100674.03
2022-08-11T00:59:03.170Z,100673.06
2022-08-11T00:59:54.094Z,100667.72
2022-08-11T01:00:26.149Z,100673.19
2022-08-11T01:01:09.729Z,100674.03
2022-08-11T01:01:41.063Z,100678.81
2022-08-11T01:02:29.150Z,100684.03
2022-08-11T01:03:16.840Z,100672.06
2022-08-11T01:03:54.328Z,100675.75
2022-08-11T01:04:28.395Z,100678.41
2022-08-11T01:05:18.174Z,100677.56
2022-08-11T01:06:08.249Z,100674.75
2022-08-11T01:06:51.924Z,100670.38
2022-08-11T01:08:00.622Z,100665.31
2022-08-11T01:08:41.962Z,100675.75
2022-08-11T01:09:22.223Z,100674.75
2022-08-11T01:10:23.216Z,100675.59
2022-08-11T01:11:09.448Z,100671.50
2022-08-11T01:11:55.462Z,100672.34
2022-08-11T01:12:42.909Z,100666.97
2022-08-11T01:13:23.110Z,100665.31
2022-08-11T01:14:06.396Z,100669.97
2022-08-11T01:14:37.687Z,100666.97
2022-08-11T01:15:20.521Z,100667.84
2022-08-11T01:16:06.625Z,100662.63
2022-08-11T01:16:58.269Z,100666.97
2022-08-11T01:17:48.424Z,100665.31
2022-08-11T01:18:28.434Z,100665.59
2022-08-11T01:19:17.368Z,100665.59
2022-08-11T01:20:47.328Z,100667.28
2022-08-11T01:20:58.753Z,100666.69
2022-08-11T01:21:33.124Z,100669.22
2022-08-11T01:22:16.605Z,100669.50
2022-08-11T01:23:00.330Z,100667.44
2022-08-11T01:23:50.389Z,100666.41
2022-08-11T01:24:33.780Z,100664.88
2022-08-11T01:25:23.879Z,100672.91
2022-08-11T01:25:57.552Z,100669.22
2022-08-11T01:26:38.266Z,100678.13
2022-08-11T01:27:19.092Z,100666.69
2022-08-11T01:28:06.310Z,100670.94
2022-08-11T01:28:47.976Z,100667.56
2022-08-11T01:29:28.199Z,100670.94
2022-08-11T01:29:59.514Z,100667.56
2022-08-11T01:30:43.340Z,100667.28
2022-08-11T01:31:26.708Z,100670.94
2022-08-11T01:32:02.768Z,100670.94
2022-08-11T01:33:00.371Z,100672.63
2022-08-11T01:33:50.445Z,100678.97
2022-08-11T01:34:27.572Z,100672.63
2022-08-11T01:35:11.100Z,100668.97
2022-08-11T01:36:14.851Z,100671.78
2022-08-11T01:36:56.525Z,100669.22
2022-08-11T01:37:46.773Z,100673.75
2022-08-11T01:38:36.779Z,100663.88
2022-08-11T01:39:08.205Z,100668.41
2022-08-11T01:39:39.624Z,100671.22
2022-08-11T01:40:13.572Z,100677.53
2022-08-11T01:40:56.796Z,100663.03
2022-08-11T01:41:43.457Z,100673.75
2022-08-11T01:42:35.798Z,100668.41
2022-08-11T01:43:14.156Z,100675.44
2022-08-11T01:43:45.452Z,100667.56
2022-08-11T01:44:35.082Z,100669.50
2022-08-11T01:45:08.095Z,100665.59
2022-08-11T01:45:44.211Z,100668.25
2022-08-11T01:46:16.940Z,100664.75
2022-08-11T01:47:06.849Z,100661.22
2022-08-11T01:47:58.815Z,100676.56
2022-08-11T01:48:41.148Z,100666.56
2022-08-11T01:50:06.618Z,100670.94
2022-08-11T01:50:21.186Z,100667.84
2022-08-11T01:50:55.145Z,100672.91
2022-08-11T01:51:45.402Z,100670.09
2022-08-11T01:52:31.052Z,100674.03
2022-08-11T01:53:41.702Z,100666.56
2022-08-11T01:54:18.794Z,100673.88
2022-08-11T01:54:54.180Z,100674.84
2022-08-11T01:55:27.546Z,100671.22
2022-08-11T01:56:17.393Z,100672.31
2022-08-11T01:57:21.088Z,100673.88
2022-08-11T01:57:55.231Z,100675.13
2022-08-11T01:58:43.582Z,100667.28
2022-08-11T01:59:41.628Z,100677.09
2022-08-11T02:00:14.993Z,100676.84
2022-08-11T02:00:55.022Z,100670.50
2022-08-11T02:01:35.923Z,100676.00
2022-08-11T02:02:17.756Z,100683.88
2022-08-11T02:03:08.274Z,100676.56
2022-08-11T02:03:43.521Z,100674.16
2022-08-11T02:04:14.780Z,100681.91
2022-08-11T02:05:07.519Z,100679.38
2022-08-11T02:05:47.130Z,100682.03
2022-08-11T02:06:31.235Z,100678.53
2022-08-11T02:07:04.894Z,100677.66
2022-08-11T02:07:58.193Z,100684.72
2022-08-11T02:08:39.647Z,100680.22
2022-08-11T02:09:20.580Z,100683.88
2022-08-11T02:10:01.053Z,100683.88
2022-08-11T02:10:38.662Z,100685.25
2022-08-11T02:11:30.237Z,100675.13
2022-08-11T02:12:03.440Z,100681.06
2022-08-11T02:12:39.848Z,100682.03
2022-08-11T02:13:19.354Z,100683.88
2022-08-11T02:14:43.079Z,100681.22
2022-08-11T02:15:29.417Z,100673.31
2022-08-11T02:16:23.899Z,100674.28
2022-08-11T02:17:11.129Z,100675.84
2022-08-11T02:17:48.020Z,100673.19
2022-08-11T02:18:24.964Z,100677.53
2022-08-11T02:19:01.033Z,100677.66
2022-08-11T02:19:38.417Z,100679.38
2022-08-11T02:20:26.396Z,100677.66
2022-08-11T02:21:00.050Z,100673.19
2022-08-11T02:21:37.574Z,100671.47
2022-08-11T02:22:17.200Z,100680.78
2022-08-11T02:22:48.478Z,100677.09
2022-08-11T02:24:04.763Z,100679.78
2022-08-11T02:24:24.360Z,100679.63
2022-08-11T02:24:55.648Z,100675.13
2022-08-11T02:25:37.364Z,100680.78
2022-08-11T02:26:19.117Z,100680.78
2022-08-11T02:26:55.752Z,100676.41
2022-08-11T02:27:27.871Z,100682.72
2022-08-11T02:28:01.285Z,100685.41
2022-08-11T02:28:54.270Z,100681.06
2022-08-11T02:29:29.603Z,100684.44
2022-08-11T02:30:02.332Z,100680.19
2022-08-11T02:30:35.478Z,100683.00
2022-08-11T02:31:15.523Z,100682.84
2022-08-11T02:32:25.485Z,100684.84
2022-08-11T02:33:08.492Z,100679.63
2022-08-11T02:33:39.806Z,100683.28
2022-08-11T02:34:20.284Z,100676.81
2022-08-11T02:35:09.938Z,100683.00
2022-08-11T02:35:44.173Z,100678.25
2022-08-11T02:36:17.155Z,100673.03
2022-08-11T02:37:07.276Z,100675.44
2022-08-11T02:37:48.366Z,100670.78
2022-08-11T02:38:19.665Z,100672.75
2022-08-11T02:38:57.118Z,100662.88
2022-08-11T02:39:31.886Z,100668.38
2022-08-11T02:40:12.049Z,100676.25
2022-08-11T02:40:43.339Z,100672.63
2022-08-11T02:41:23.874Z,100669.06
2022-08-11T02:41:58.980Z,100667.28
2022-08-11T02:42:36.040Z,100666.41
2022-08-11T02:43:11.129Z,100666.69
2022-08-11T02:43:51.268Z,100667.41
2022-08-11T02:44:41.458Z,100673.47
2022-08-11T02:45:16.335Z,100668.38
2022-08-11T02:46:06.084Z,100666.69
2022-08-11T02:46:49.858Z,100667.25
2022-08-11T02:47:39.951Z,100672.03
2022-08-11T02:48:25.514Z,100666.41
2022-08-11T02:49:00.897Z,100668.50
2022-08-11T02:49:34.941Z,100668.38
2022-08-11T02:50:12.303Z,100671.06
2022-08-11T02:51:02.468Z,100668.78
2022-08-11T02:51:52.572Z,100667.94
2022-08-11T02:52:59.480Z,100677.94
2022-08-11T02:53:37.984Z,100673.16
2022-08-11T02:54:14.920Z,100673.16
2022-08-11T02:54:52.306Z,100670.22
2022-08-11T02:55:56.804Z,100668.50
2022-08-11T02:56:42.307Z,100667.53
2022-08-11T02:57:19.206Z,100671.19
2022-08-11T02:57:55.303Z,100661.31
2022-08-11T02:58:33.422Z,100671.06
2022-08-11T02:59:08.423Z,100668.66
2022-08-11T02:59:58.294Z,100666.69
2022-08-11T03:00:30.156Z,100677.38
2022-08-11T03:01:16.428Z,100674.25
2022-08-11T03:02:06.382Z,100667.69
2022-08-11T03:02:40.594Z,100674.56
2022-08-11T03:03:11.867Z,100677.38
2022-08-11T03:03:45.610Z,100672.88
2022-08-11T03:04:24.732Z,100673.72
2022-08-11T03:05:11.878Z,100672.03
2022-08-11T03:06:01.742Z,100670.22
2022-08-11T03:06:45.258Z,100671.31
2022-08-11T03:07:29.160Z,100678.38
2022-08-11T03:08:07.464Z,100668.50
2022-08-11T03:08:57.657Z,100671.31
2022-08-11T03:09:42.324Z,100672.16
2022-08-11T03:10:28.154Z,100675.69
2022-08-11T03:11:07.877Z,100681.31
2022-08-11T03:11:52.604Z,100674.25
2022-08-11T03:12:42.526Z,100677.66
2022-08-11T03:13:22.036Z,100672.28
2022-08-11T03:14:11.906Z,100674.00
2022-08-11T03:15:00.153Z,100682.72
2022-08-11T03:15:32.146Z,100679.34
2022-08-11T03:16:09.971Z,100675.84
2022-08-11T03:16:43.590Z,100675.69
2022-08-11T03:17:14.883Z,100679.34
2022-08-11T03:17:53.999Z,100674.00
2022-08-11T03:18:29.804Z,100676.53
2022-08-11T03:19:07.016Z,100677.66
2022-08-11T03:19:56.992Z,100672.16
2022-08-11T03:20:33.184Z,100681.88
2022-08-11T03:21:11.472Z,100673.16
2022-08-11T03:22:02.544Z,100684.69
2022-08-11T03:22:37.324Z,100682.03
2022-08-11T03:23:20.131Z,100680.19
2022-08-11T03:24:24.178Z,100676.53
2022-08-11T03:25:00.790Z,100679.34
2022-08-11T03:25:38.380Z,100687.38
2022-08-11T03:26:31.948Z,100682.16
2022-08-11T03:27:08.104Z,100677.66
2022-08-11T03:27:47.444Z,100673.31
2022-08-11T03:28:41.905Z,100675.97
2022-08-11T03:29:25.136Z,100680.47
2022-08-11T03:30:14.770Z,100675.09
2022-08-11T03:30:46.081Z,100673.31
2022-08-11T03:31:35.179Z,100677.66
2022-08-11T03:32:10.902Z,100678.22
2022-08-11T03:32:48.010Z,100675.53
2022-08-11T03:33:23.519Z,100676.25
2022-08-11T03:34:00.518Z,100678.47
2022-08-11T03:34:35.408Z,100675.53
2022-08-11T03:35:06.735Z,100674.25
2022-08-11T03:35:40.260Z,100674.13
2022-08-11T03:36:17.477Z,100682.44
2022-08-11T03:37:16.005Z,100676.81
2022-08-11T03:37:55.738Z,100678.78
2022-08-11T03:38:30.635Z,100680.75
2022-08-11T03:39:05.089Z,100675.41
2022-08-11T03:39:56.810Z,100686.94
2022-08-11T03:40:28.357Z,100683.28
2022-08-11T03:41:05.124Z,100681.59
2022-08-11T03:42:15.351Z,100678.34
2022-08-11T03:42:52.888Z,100681.88
2022-08-11T03:43:28.775Z,100679.19
2022-08-11T03:44:14.878Z,100683.56
2022-08-11T03:44:48.954Z,100688.91
2022-08-11T03:45:22.717Z,100684.97
2022-08-11T03:46:10.857Z,100673.84
2022-08-11T03:46:51.347Z,100685.09
2022-08-11T03:47:22.623Z,100682.44
2022-08-11T03:47:56.633Z,100678.91
2022-08-11T03:48:49.192Z,100677.94
2022-08-11T03:49:38.955Z,100676.25
2022-08-11T03:50:26.815Z,100678.91
2022-08-11T03:51:15.557Z,100676.38
2022-08-11T03:51:51.878Z,100678.91
2022-08-11T03:52:28.454Z,100674.53
2022-08-11T03:53:17.819Z,100673.97
2022-08-11T03:53:54.920Z,100672.88
2022-08-11T03:54:32.351Z,100675.28
2022-08-11T03:55:19.818Z,100674.41
2022-08-11T03:56:06.478Z,100673.56
2022-08-11T03:56:52.026Z,100676.25
2022-08-11T03:57:46.087Z,100671.72
2022-08-11T03:58:41.611Z,100671.72
2022-08-11T03:59:27.735Z,100672.00
2022-08-11T04:00:14.239Z,100677.34
2022-08-11T04:00:50.698Z,100676.25
2022-08-11T04:01:40.610Z,100676.38
2022-08-11T04:02:30.702Z,100673.84
2022-08-11T04:03:04.991Z,100678.34
2022-08-11T04:03:39.007Z,100679.19
2022-08-11T04:04:28.818Z,100676.38
2022-08-11T04:05:03.150Z,100664.97
2022-08-11T04:05:49.429Z,100676.50
2022-08-11T04:06:30.393Z,100663.28
2022-08-11T04:07:10.863Z,100670.31
2022-08-11T04:08:04.359Z,100668.34
2022-08-11T04:08:41.425Z,100677.06
2022-08-11T04:09:13.290Z,100674.53
2022-08-11T04:09:54.661Z,100677.94
2022-08-11T04:10:29.364Z,100676.38
2022-08-11T04:11:06.557Z,100673.00
2022-08-11T04:11:37.817Z,100678.47
2022-08-11T04:12:36.318Z,100676.50
2022-08-11T04:13:47.426Z,100667.66
2022-08-11T04:14:27.621Z,100671.16
2022-08-11T04:15:05.012Z,100673.13
2022-08-11T04:15:42.062Z,100668.75
2022-08-11T04:16:31.587Z,100675.94
2022-08-11T04:17:22.825Z,100673.00
2022-08-11T04:18:02.214Z,100666.91
2022-08-11T04:18:52.299Z,100671.28
2022-08-11T04:19:34.318Z,100667.78
2022-08-11T04:20:08.354Z,100668.75
2022-08-11T04:20:53.900Z,100671.69
2022-08-11T04:21:35.249Z,100667.78
2022-08-11T04:22:25.061Z,100667.06
2022-08-11T04:23:02.381Z,100669.47
2022-08-11T04:24:13.262Z,100678.34
2022-08-11T04:24:50.788Z,100674.25
2022-08-11T04:25:29.249Z,100674.25
2022-08-11T04:26:19.346Z,100668.75
2022-08-11T04:27:14.312Z,100673.69
2022-08-11T04:27:53.519Z,100665.81
2022-08-11T04:28:28.957Z,100671.44
2022-08-11T04:29:04.036Z,100675.94
2022-08-11T04:30:02.128Z,100672.41
2022-08-11T04:30:55.936Z,100673.28
2022-08-11T04:31:50.409Z,100671.69
2022-08-11T04:32:29.697Z,100668.06
2022-08-11T04:33:19.888Z,100675.38
2022-08-11T04:33:58.335Z,100670.88
2022-08-11T04:34:36.342Z,100678.88
2022-08-11T04:35:19.609Z,100676.47
2022-08-11T04:35:53.813Z,100673.69
2022-08-11T04:36:37.453Z,100674.38
2022-08-11T04:37:12.195Z,100674.25
2022-08-11T04:37:51.291Z,100675.38
2022-08-11T04:38:34.059Z,100677.31
2022-08-11T04:39:16.110Z,100673.53
2022-08-11T04:40:00.184Z,100682.53
2022-08-11T04:40:40.269Z,100671.00
2022-08-11T04:41:14.740Z,100668.19
2022-08-11T04:42:05.073Z,100670.03
2022-08-11T04:42:59.837Z,100676.34
2022-08-11T04:44:02.816Z,100676.34
2022-08-11T04:44:49.994Z,100674.25
2022-08-11T04:45:39.415Z,100685.22
2022-08-11T04:46:22.763Z,100675.38
2022-08-11T04:46:58.868Z,100684.38
2022-08-11T04:48:03.654Z,100674.38
2022-08-11T04:48:35.322Z,100673.41
2022-08-11T04:49:13.750Z,100677.91
2022-08-11T04:50:15.728Z,100677.91
2022-08-11T04:51:08.618Z,100682.41
2022-08-11T04:51:55.395Z,100682.66
2022-08-11T04:52:44.753Z,100681.69
2022-08-11T04:53:42.248Z,100676.34
2022-08-11T04:54:37.877Z,100685.22
2022-08-11T04:55:11.942Z,100682.66
2022-08-11T04:56:01.751Z,100677.19
2022-08-11T04:56:33.300Z,100673.69
2022-08-11T04:57:06.360Z,100673.69
2022-08-11T04:57:51.626Z,100680.84
2022-08-11T04:58:40.860Z,100685.06
2022-08-11T04:59:20.057Z,100680.09
2022-08-11T05:00:01.351Z,100679.03
2022-08-11T05:00:38.115Z,100678.06
2022-08-11T05:01:28.090Z,100676.22
2022-08-11T05:02:17.986Z,100679.16
2022-08-11T05:03:07.373Z,100684.09
2022-08-11T05:03:43.129Z,100676.34
2022-08-11T05:04:33.450Z,100675.25
2022-08-11T05:05:23.628Z,100677.75
2022-08-11T05:06:13.773Z,100684.50
2022-08-11T05:06:45.091Z,100679.03
2022-08-11T05:07:20.902Z,100678.19
2022-08-11T05:08:24.632Z,100675.63
2022-08-11T05:09:07.962Z,100673.81
2022-08-11T05:09:51.362Z,100682.06
2022-08-11T05:10:31.752Z,100675.50
2022-08-11T05:11:22.079Z,100682.41
2022-08-11T05:12:01.694Z,100673.41
2022-08-11T05:12:36.124Z,100678.75
2022-08-11T05:13:07.532Z,100675.38
2022-08-11T05:13:44.584Z,100684.94
2022-08-11T05:14:18.403Z,100680.72
2022-08-11T05:14:54.316Z,100677.03
2022-08-11T05:15:30.649Z,100678.06
2022-08-11T05:16:04.003Z,100675.38
2022-08-11T05:16:41.481Z,100676.09
2022-08-11T05:17:14.700Z,100670.72
2022-08-11T05:17:52.229Z,100670.88
2022-08-11T05:18:24.016Z,100676.09
2022-08-11T05:18:55.390Z,100678.75
2022-08-11T05:19:26.785Z,100679.72
2022-08-11T05:19:58.143Z,100676.09
2022-08-11T05:20:29.532Z,100674.25
2022-08-11T05:21:05.295Z,100684.94
2022-08-11T05:21:44.450Z,100683.84
2022-08-11T05:22:18.368Z,100676.78
2022-08-11T05:22:50.767Z,100675.06
2022-08-11T05:23:22.184Z,100676.91
2022-08-11T05:23:57.835Z,100680.44
2022-08-11T05:24:32.120Z,100684.81
2022-08-11T05:25:07.024Z,100677.63
2022-08-11T05:26:44.551Z,100677.63
2022-08-11T05:26:47.438Z,100680.28
2022-08-11T05:27:20.209Z,100688.31
2022-08-11T05:27:54.463Z,100682.25
2022-08-11T05:28:25.761Z,100675.06
2022-08-11T05:29:00.192Z,100684.09
2022-08-11T05:29:43.055Z,100682.41
2022-08-11T05:30:14.486Z,100678.75
2022-08-11T05:30:45.812Z,100684.94
2022-08-11T05:31:17.996Z,100689.44
2022-08-11T05:31:55.933Z,100689.59
2022-08-11T05:32:29.094Z,100681.69
2022-08-11T05:33:03.216Z,100689.59
2022-08-11T05:33:35.670Z,100686.91
2022-08-11T05:34:18.382Z,100684.38
2022-08-11T05:34:52.429Z,100688.88
2022-08-11T05:35:29.068Z,100686.06
2022-08-11T05:36:23.193Z,100688.00
2022-08-11T05:37:11.618Z,100689.84
2022-08-11T05:37:46.388Z,100688.53
2022-08-11T05:38:21.548Z,100685.84
2022-08-11T05:39:03.223Z,100684.88
2022-08-11T05:39:41.782Z,100688.25
2022-08-11T05:40:13.677Z,100691.66
2022-08-11T05:40:51.298Z,100689.84
2022-08-11T05:41:25.473Z,100688.25
2022-08-11T05:41:57.508Z,100690.34
2022-08-11T05:42:30.563Z,100686.56
2022-08-11T05:43:02.753Z,100692.75
2022-08-11T05:43:34.122Z,100692.75
2022-08-11T05:44:20.993Z,100690.50
2022-08-11T05:44:53.785Z,100690.34
2022-08-11T05:45:27.410Z,100689.38
2022-08-11T05:46:18.782Z,100693.03
2022-08-11T05:46:50.257Z,100693.88
2022-08-11T05:47:24.868Z,100695.44
2022-08-11T05:47:56.237Z,100692.75
2022-08-11T05:48:34.580Z,100694.47
2022-08-11T05:49:08.625Z,100697.00
2022-08-11T05:49:40.075Z,100694.47
2022-08-11T05:50:13.561Z,100700.66
2022-08-11T05:50:53.020Z,100699.94
2022-08-11T05:51:30.522Z,100694.47
2022-08-11T05:52:04.918Z,100697.88
2022-08-11T05:52:48.975Z,100691.94
2022-08-11T05:53:26.871Z,100693.38
2022-08-11T05:53:59.884Z,100695.19
2022-08-11T05:54:31.488Z,100693.47
2022-08-11T05:55:05.351Z,100689.94
2022-08-11T05:55:58.358Z,100695.31
2022-08-11T05:56:31.689Z,100693.38
2022-08-11T05:57:03.048Z,100691.66
2022-08-11T05:57:48.989Z,100700.41
2022-08-11T05:58:23.107Z,100697.00
2022-08-11T05:58:54.525Z,100693.47
2022-08-11T05:59:25.845Z,100702.25
2022-08-11T06:00:06.706Z,100695.06
2022-08-11T06:00:44.777Z,100688.75
2022-08-11T06:01:29.156Z,100696.03
2022-08-11T06:02:03.718Z,100696.78
2022-08-11T06:02:37.548Z,100699.44
2022-08-11T06:03:08.996Z,100698.72
2022-08-11T06:03:42.253Z,100695.91
2022-08-11T06:04:29.810Z,100688.00
2022-08-11T06:05:01.197Z,100694.34
2022-08-11T06:05:32.886Z,100697.88
2022-08-11T06:06:09.912Z,100690.69
2022-08-11T06:06:57.043Z,100694.94
2022-08-11T06:07:47.635Z,100697.88
2022-08-11T06:08:27.629Z,100693.09
2022-08-11T06:08:58.960Z,100690.56
2022-08-11T06:09:36.189Z,100689.44
2022-08-11T06:10:07.682Z,100693.09
2022-08-11T06:10:40.990Z,100691.66
2022-08-11T06:11:12.363Z,100696.78
2022-08-11T06:11:45.058Z,100691.44
2022-08-11T06:12:17.405Z,100691.56
2022-08-11T06:12:50.983Z,100690.94
2022-08-11T06:13:23.304Z,100691.66
2022-08-11T06:13:54.634Z,100689.13
2022-08-11T06:14:25.986Z,100689.94
2022-08-11T06:14:57.378Z,100695.06
2022-08-11T06:15:29.823Z,100689.72
2022-08-11T06:16:06.314Z,100685.22
2022-08-11T06:16:38.245Z,100690.41
2022-08-11T06:17:09.567Z,100684.09
2022-08-11T06:17:44.471Z,100680.59
2022-08-11T06:18:15.851Z,100689.44
2022-08-11T06:18:47.281Z,100692.00
2022-08-11T06:19:19.519Z,100689.19
2022-08-11T06:19:50.853Z,100682.97
2022-08-11T06:20:22.196Z,100686.66
2022-08-11T06:20:54.128Z,100684.66
2022-08-11T06:21:25.505Z,100683.84
2022-08-11T06:21:56.835Z,100687.47
2022-08-11T06:22:28.211Z,100690.03
2022-08-11T06:23:01.278Z,100690.84
2022-08-11T06:23:32.822Z,100686.50
2022-08-11T06:24:10.967Z,100691.84
2022-08-11T06:24:42.460Z,100684.94
2022-08-11T06:25:13.817Z,100690.28
2022-08-11T06:25:45.154Z,100683.84
2022-08-11T06:26:16.504Z,100687.47
2022-08-11T06:27:10.804Z,100689.44
2022-08-11T06:27:40.822Z,100685.50
2022-08-11T06:28:13.490Z,100687.47
2022-08-11T06:28:47.295Z,100687.47
2022-08-11T06:29:18.628Z,100683.84
2022-08-11T06:29:55.409Z,100687.63
2022-08-11T06:30:45.142Z,100683.84
2022-08-11T06:31:18.561Z,100688.19
2022-08-11T06:31:53.659Z,100686.50
2022-08-11T06:32:28.563Z,100684.09
2022-08-11T06:32:59.923Z,100680.44
2022-08-11T06:33:33.180Z,100686.66
2022-08-11T06:34:27.078Z,100685.78
2022-08-11T06:35:07.864Z,100691.00
2022-08-11T06:36:00.138Z,100685.78
2022-08-11T06:36:31.397Z,100685.78
2022-08-11T06:37:08.706Z,100683.09
2022-08-11T06:37:42.801Z,100678.75
2022-08-11T06:38:15.777Z,100684.09
2022-08-11T06:38:50.235Z,100685.78
2022-08-11T06:39:27.580Z,100684.94
2022-08-11T06:40:17.468Z,100686.78
2022-08-11T06:40:58.522Z,100675.94
2022-08-11T06:41:48.408Z,100680.44
2022-08-11T06:42:32.839Z,100684.09
2022-08-11T06:43:23.005Z,100678.63
2022-08-11T06:43:58.950Z,100677.91
2022-08-11T06:44:33.517Z,100675.38
2022-08-11T06:45:12.878Z,100681.56
2022-08-11T06:45:48.914Z,100677.91
2022-08-11T06:46:28.441Z,100678.75
2022-08-11T06:47:07.820Z,100673.41
2022-08-11T06:47:42.357Z,100669.91
2022-08-11T06:48:17.491Z,100676.91
2022-08-11T06:48:48.862Z,100670.72
2022-08-11T06:49:20.898Z,100675.94
2022-08-11T06:49:52.233Z,100674.09
2022-08-11T06:50:23.610Z,100678.47
2022-08-11T06:51:03.334Z,100677.91
2022-08-11T06:51:35.020Z,100676.09
2022-08-11T06:52:12.822Z,100674.09
2022-08-11T06:52:59.594Z,100679.47
2022-08-11T06:53:32.194Z,100675.94
2022-08-11T06:54:05.529Z,100674.09
2022-08-11T06:54:37.444Z,100676.78
2022-08-11T06:55:55.847Z,100675.25
2022-08-11T06:56:02.355Z,100667.91
2022-08-11T06:56:36.700Z,100672.25
2022-08-11T06:58:01.161Z,100678.63
2022-08-11T06:58:36.186Z,100673.41
2022-08-11T06:59:07.512Z,100679.59
2022-08-11T06:59:38.883Z,100673.41
2022-08-11T07:00:10.758Z,100676.22
2022-08-11T07:00:42.102Z,100677.19
2022-08-11T07:01:14.297Z,100673.69
2022-08-11T07:02:05.874Z,100669.91
2022-08-11T07:02:37.758Z,100678.75
2022-08-11T07:03:12.561Z,100674.38
2022-08-11T07:03:44.776Z,100668.91
2022-08-11T07:04:30.648Z,100672.41
2022-08-11T07:05:01.993Z,100670.72
2022-08-11T07:05:33.289Z,100670.59
2022-08-11T07:06:06.391Z,100674.25
2022-08-11T07:06:52.764Z,100678.63
2022-08-11T07:07:53.315Z,100681.16
2022-08-11T07:08:43.419Z,100673.13
2022-08-11T07:09:34.996Z,100677.63
2022-08-11T07:10:08.902Z,100678.88
2022-08-11T07:10:45.970Z,100675.06
2022-08-11T07:11:29.198Z,100678.75
2022-08-11T07:12:09.205Z,100673.41
2022-08-11T07:12:41.457Z,100676.78
2022-08-11T07:13:44.335Z,100674.25
2022-08-11T07:14:04.636Z,100679.47
2022-08-11T07:14:38.510Z,100667.78
2022-08-11T07:15:10.087Z,100673.28
2022-08-11T07:16:10.966Z,100671.28
2022-08-11T07:16:32.723Z,100672.25
2022-08-11T07:17:04.055Z,100668.75
2022-08-11T07:17:37.817Z,100674.09
2022-08-11T07:18:11.922Z,100671.44
2022-08-11T07:18:43.307Z,100670.59
2022-08-11T07:19:16.741Z,100668.06
2022-08-11T07:19:50.500Z,100673.13
2022-08-11T07:20:21.863Z,100665.81
2022-08-11T07:20:56.446Z,100662.44
2022-08-11T07:22:00.645Z,100668.50
2022-08-11T07:22:21.960Z,100673.69
2022-08-11T07:22:57.102Z,100669.31
2022-08-11T07:23:28.906Z,100673.69
2022-08-11T07:24:01.318Z,100672.25
2022-08-11T07:25:02.038Z,100671.28
2022-08-11T07:25:28.134Z,100675.06
2022-08-11T07:25:59.515Z,100667.91
2022-08-11T07:26:30.865Z,100670.47
2022-08-11T07:27:02.202Z,100667.06
2022-08-11T07:27:37.694Z,100661.56
2022-08-11T07:28:14.616Z,100673.97
2022-08-11T07:28:46.710Z,100662.31
2022-08-11T07:29:18.145Z,100665.94
2022-08-11T07:29:49.586Z,100672.88
2022-08-11T07:30:20.974Z,100665.81
2022-08-11T07:30:54.131Z,100666.78
2022-08-11T07:31:35.264Z,100665.94
2022-08-11T07:32:09.506Z,100669.47
2022-08-11T07:33:01.072Z,100667.78
2022-08-11T07:34:05.758Z,100659.75
2022-08-11T07:34:28.790Z,100660.59
2022-08-11T07:35:07.022Z,100666.78
2022-08-11T07:35:38.960Z,100659.63
2022-08-11T07:36:10.280Z,100669.47